Terminal Aerodrome Forecast
Issued by NWS

Home | Current Version | Previous Version | Text Only | Print | Product List | Glossary On
Versions: 1 2 3 4 5 6 7 8 9 10 11 12 13
000
FTUS41 KBTV 180520
TAFMPV
TAF
KMPV 180520Z 1806/1906 VRB03KT P6SM BKN035
     FM181400 25008KT P6SM SCT045
     FM181700 28010KT P6SM VCSH BKN050
      TEMPO 1817/1821 -SHRA OVC040
     FM182100 30014KT P6SM BKN050
     FM190300 32012G20KT P6SM BKN035=

USA.gov is the U.S. government's official web portal to all federal, state and local government web resources and services.